Time;durP1;ratioP1;P1;durP2;ratioP2;P2;SDS_P1;SDS_P2;PMS_P1;PMS_P2;Temp;Humidity;BMP_temperature;BMP_pressure;BME280_temperature;BME280_humidity;BME280_pressure;Samples;Min_cycle;Max_cycle;Signal;HPM_P1;HPM_P2
2022/01/01 00:02:00;;;;;;;15.65;6.87;;;;;;;3.36;81.32;101460.34;1921188;75;21038;-61
2022/01/01 00:04:29;;;;;;;12.58;5.37;;;;;;;3.38;81.35;101453.41;1921109;75;21186;-62
2022/01/01 00:06:57;;;;;;;16.45;6.47;;;;;;;3.32;81.26;101454.70;1921173;75;21485;-61
2022/01/01 00:09:26;;;;;;;12.95;5.70;;;;;;;3.32;81.31;101462.51;1921152;75;21055;-61
2022/01/01 00:11:55;;;;;;;10.93;5.47;;;;;;;3.38;81.32;101457.30;1936774;73;21100;-61
2022/01/01 00:14:23;;;;;;;15.32;4.95;;;;;;;3.37;81.15;101457.30;1893523;73;21509;-70
2022/01/01 00:16:52;;;;;;;13.20;6.22;;;;;;;3.33;81.14;101455.56;1903717;75;20995;-64
2022/01/01 00:19:21;;;;;;;10.35;5.08;;;;;;;3.30;81.20;101455.09;1882997;76;21030;-69
2022/01/01 00:21:50;;;;;;;11.43;4.85;;;;;;;3.30;81.20;101460.30;1895495;75;21121;-64
2022/01/01 00:24:19;;;;;;;14.55;6.05;;;;;;;3.28;81.19;101454.23;1879878;76;21505;-64
2022/01/01 00:26:48;;;;;;;11.33;4.25;;;;;;;3.24;81.27;101453.35;1860522;76;21058;-65
2022/01/01 00:29:17;;;;;;;11.22;5.03;;;;;;;3.22;81.37;101459.44;1873418;76;21120;-62
2022/01/01 00:31:45;;;;;;;12.55;5.65;;;;;;;3.25;81.40;101450.34;1910559;74;21112;-67
2022/01/01 00:34:14;;;;;;;12.60;4.80;;;;;;;3.25;81.33;101444.70;1886980;75;21048;-65
2022/01/01 00:36:43;;;;;;;12.98;5.47;;;;;;;3.26;81.28;101442.55;1913336;74;21017;-65
2022/01/01 00:39:12;;;;;;;13.68;5.83;;;;;;;3.30;81.29;101442.09;1846101;78;21111;-62
2022/01/01 00:41:42;;;;;;;11.93;5.33;;;;;;;3.32;81.26;101441.69;1841530;77;21485;-62
2022/01/01 00:44:11;;;;;;;14.45;5.25;;;;;;;3.35;81.21;101438.20;1911804;75;21461;-65
2022/01/01 00:46:40;;;;;;;10.95;5.65;;;;;;;3.36;81.21;101444.72;1911882;75;21040;-66
2022/01/01 00:49:08;;;;;;;14.38;5.42;;;;;;;3.36;81.16;101438.22;1911962;75;21061;-66
2022/01/01 00:51:37;;;;;;;16.48;7.70;;;;;;;3.38;81.08;101433.02;1909538;75;21126;-69
2022/01/01 00:54:06;;;;;;;19.32;8.63;;;;;;;3.35;81.13;101436.46;1906458;75;21432;-66
2022/01/01 00:56:34;;;;;;;12.88;6.10;;;;;;;3.27;81.29;101429.09;1894965;75;21092;-58
2022/01/01 00:59:03;;;;;;;19.48;8.60;;;;;;;3.26;81.39;101429.53;1877561;75;21094;-58
2022/01/01 01:01:32;;;;;;;19.60;8.23;;;;;;;3.24;81.38;101418.66;1911875;75;21031;-61
2022/01/01 01:04:01;;;;;;;23.02;8.68;;;;;;;3.23;81.45;101421.70;1912035;75;21090;-63
2022/01/01 01:06:30;;;;;;;17.55;8.13;;;;;;;3.21;81.56;101423.44;1911761;75;21040;-62
2022/01/01 01:09:00;;;;;;;11.97;4.35;;;;;;;3.21;81.64;101420.84;1877726;76;21093;-61
2022/01/01 01:11:29;;;;;;;7.50;3.67;;;;;;;3.24;81.63;101412.16;1856686;76;21046;-61
2022/01/01 01:14:00;;;;;;;10.08;4.62;;;;;;;3.27;81.51;101410.87;1877224;76;21522;-62
2022/01/01 01:16:29;;;;;;;10.18;4.22;;;;;;;3.29;81.52;101408.69;1912009;75;21045;-62
2022/01/01 01:18:58;;;;;;;8.45;3.35;;;;;;;3.30;81.48;101395.23;1911923;75;21487;-62
2022/01/01 01:21:28;;;;;;;8.53;3.75;;;;;;;3.32;81.42;101397.84;1911810;75;21114;-63
2022/01/01 01:23:57;;;;;;;7.15;3.50;;;;;;;3.33;81.45;101391.34;1912024;75;21040;-62
2022/01/01 01:26:28;;;;;;;6.20;3.15;;;;;;;3.36;81.39;101396.56;1890764;75;21090;-63
2022/01/01 01:28:58;;;;;;;8.43;3.95;;;;;;;3.37;81.37;101390.91;1817886;79;21058;-65
2022/01/01 01:31:28;;;;;;;7.62;3.08;;;;;;;3.34;81.45;101387.89;1880848;75;21020;-64
2022/01/01 01:33:57;;;;;;;8.05;3.20;;;;;;;3.38;81.42;101388.77;1904519;75;21039;-62
2022/01/01 01:36:26;;;;;;;11.08;4.47;;;;;;;3.37;81.37;101383.97;1904806;75;21036;-61
2022/01/01 01:38:55;;;;;;;10.88;4.20;;;;;;;3.34;81.47;101373.57;1906551;74;21072;-64
2022/01/01 01:41:24;;;;;;;13.08;4.62;;;;;;;3.37;81.47;101377.45;1873307;76;21080;-64
2022/01/01 01:43:54;;;;;;;14.38;5.62;;;;;;;3.41;81.37;101373.13;1859318;76;21485;-63
2022/01/01 01:46:22;;;;;;;15.20;6.60;;;;;;;3.45;81.26;101374.44;1909969;75;21459;-64
2022/01/01 01:48:51;;;;;;;15.08;6.15;;;;;;;3.50;81.18;101369.22;1876584;76;21085;-63
2022/01/01 01:51:21;;;;;;;16.17;7.50;;;;;;;3.54;81.07;101367.08;1875494;75;21598;-65
2022/01/01 01:53:49;;;;;;;16.60;7.35;;;;;;;3.59;81.04;101359.25;1876213;75;21453;-62
2022/01/01 01:56:18;;;;;;;22.40;7.70;;;;;;;3.61;80.95;101358.81;1877602;76;21088;-61
2022/01/01 01:58:47;;;;;;;14.30;5.72;;;;;;;3.60;80.89;101358.39;1883169;75;21484;-63
2022/01/01 02:03:46;;;;;;;23.27;8.20;;;;;;;3.58;80.82;101357.50;1911816;75;21031;-62
2022/01/01 02:06:16;;;;;;;18.02;7.42;;;;;;;3.61;80.83;101352.30;1889535;75;21066;-61
2022/01/01 02:08:49;;;;;;;18.25;7.05;;;;;;;3.60;80.82;101350.14;1896627;75;21075;-62
2022/01/01 02:11:18;;;;;;;15.00;6.80;;;;;;;3.55;80.81;101347.96;1938385;74;21035;-62
2022/01/01 02:18:56;;;;;;;19.77;7.35;;;;;;;3.58;80.72;101347.97;1911563;75;21094;-62
2022/01/01 02:21:25;;;;;;;19.95;7.22;;;;;;;3.61;80.66;101344.48;1877341;76;21113;-62
2022/01/01 02:23:58;;;;;;;19.85;7.60;;;;;;;3.62;80.63;101342.33;1912070;75;21049;-61
2022/01/01 02:26:32;;;;;;;15.08;6.25;;;;;;;3.68;80.71;101347.52;1911804;75;21435;-60
2022/01/01 02:29:03;;;;;;;17.55;6.58;;;;;;;3.69;80.60;101347.97;1911863;75;21068;-60
2022/01/01 02:31:35;;;;;;;18.15;7.33;;;;;;;3.70;80.56;101345.78;1906920;75;21027;-60
2022/01/01 02:34:09;;;;;;;16.95;7.15;;;;;;;3.74;80.61;101338.83;1912017;75;21487;-59
2022/01/01 02:36:41;;;;;;;16.87;6.15;;;;;;;3.77;80.70;101343.61;1911924;75;21036;-60
2022/01/01 02:39:14;;;;;;;18.32;6.97;;;;;;;3.79;80.68;101341.86;1912011;75;21117;-60
2022/01/01 02:41:42;;;;;;;;;;;;;;;3.80;80.69;101345.33;1914897;75;21107;-59
2022/01/01 02:44:11;;;;;;;17.05;5.95;;;;;;;3.95;80.67;101343.16;1877789;76;20125;-60
2022/01/01 02:46:40;;;;;;;14.40;6.10;;;;;;;3.94;80.50;101341.41;1906653;75;21094;-60
2022/01/01 02:49:09;;;;;;;18.62;7.33;;;;;;;3.89;80.38;101347.06;1911901;75;21487;-63
2022/01/01 02:51:38;;;;;;;18.05;7.05;;;;;;;3.78;80.52;101347.95;1912034;75;21499;-63
2022/01/01 02:54:06;;;;;;;17.92;7.80;;;;;;;3.73;80.73;101352.30;1912280;75;21052;-63
2022/01/01 02:56:37;;;;;;;15.75;6.12;;;;;;;3.72;80.94;101350.55;1912027;75;21064;-63
2022/01/01 02:59:06;;;;;;;18.07;6.70;;;;;;;3.71;81.04;101350.14;1912131;75;21114;-62
2022/01/01 03:01:35;;;;;;;13.48;5.20;;;;;;;3.72;80.92;101349.69;1911869;75;21482;-63
2022/01/01 03:04:04;;;;;;;15.30;5.62;;;;;;;3.70;80.85;101347.08;1912017;75;21091;-62
2022/01/01 03:06:33;;;;;;;13.40;5.53;;;;;;;3.67;80.95;101347.08;1889710;75;21004;-62
2022/01/01 03:09:01;;;;;;;13.03;5.95;;;;;;;3.67;80.98;101353.59;1906805;75;21041;-63
2022/01/01 03:11:30;;;;;;;14.60;6.25;;;;;;;3.66;80.87;101352.73;1906652;75;21060;-64
2022/01/01 03:13:59;;;;;;;15.98;6.72;;;;;;;3.68;80.76;101351.43;1906686;75;21081;-63
2022/01/01 03:16:27;;;;;;;14.23;6.53;;;;;;;3.64;80.77;101351.86;1906642;75;21065;-61
2022/01/01 03:18:56;;;;;;;14.73;5.75;;;;;;;3.63;80.86;101347.55;1906789;75;21499;-60
2022/01/01 03:21:24;;;;;;;15.78;5.92;;;;;;;3.65;80.91;101339.70;1906612;75;21143;-60
2022/01/01 03:23:53;;;;;;;14.18;4.75;;;;;;;3.65;81.05;101343.20;1906776;75;21134;-61
2022/01/01 03:26:22;;;;;;;12.45;5.05;;;;;;;3.63;81.11;101343.64;1906744;75;21048;-61
2022/01/01 03:28:50;;;;;;;11.57;4.62;;;;;;;3.62;81.16;101337.12;1906554;75;21089;-61
2022/01/01 03:31:19;;;;;;;12.35;5.58;;;;;;;3.59;81.23;101341.02;1906745;75;21060;-61
2022/01/01 03:33:48;;;;;;;11.60;5.17;;;;;;;3.56;81.36;101337.10;1906790;75;21028;-61
2022/01/01 03:36:16;;;;;;;10.20;4.30;;;;;;;3.57;81.40;101329.73;1906660;75;21040;-60
2022/01/01 03:38:45;;;;;;;9.13;3.55;;;;;;;3.59;81.41;101329.30;1906609;75;21140;-61
2022/01/01 03:41:14;;;;;;;8.40;3.83;;;;;;;3.64;81.42;101328.87;1906510;75;21518;-61
2022/01/01 03:43:42;;;;;;;7.97;3.20;;;;;;;3.68;81.34;101325.39;1906664;75;21499;-60
2022/01/01 03:46:12;;;;;;;8.03;3.77;;;;;;;3.71;81.24;101323.20;1906649;75;21596;-61
2022/01/01 03:48:40;;;;;;;8.35;3.20;;;;;;;3.72;81.18;101317.99;1906758;75;21498;-61
2022/01/01 03:51:09;;;;;;;9.20;3.37;;;;;;;3.74;81.11;101313.64;1906662;75;21126;-60
2022/01/01 03:53:38;;;;;;;7.37;3.10;;;;;;;3.79;80.90;101308.44;1906520;75;21040;-61
2022/01/01 03:56:07;;;;;;;9.20;2.47;;;;;;;3.79;80.76;101305.84;1906628;75;21490;-61
2022/01/01 03:58:36;;;;;;;6.25;3.15;;;;;;;3.79;80.75;101308.44;1906651;75;21479;-60
2022/01/01 04:01:05;;;;;;;6.05;2.47;;;;;;;3.80;80.71;101301.04;1906602;75;21473;-60
2022/01/01 04:03:34;;;;;;;3.90;1.70;;;;;;;3.81;80.69;101298.44;1906625;75;21509;-60
2022/01/01 04:06:02;;;;;;;4.77;1.87;;;;;;;3.83;80.70;101295.39;1922458;74;21458;-60
2022/01/01 04:08:31;;;;;;;3.98;1.75;;;;;;;3.86;80.68;101295.84;1940077;74;21149;-60
2022/01/01 04:11:00;;;;;;;7.10;3.55;;;;;;;3.91;80.62;101295.40;1939961;74;21050;-59
2022/01/01 04:13:30;;;;;;;6.35;3.33;;;;;;;3.97;80.41;101299.73;1939995;74;21035;-60
2022/01/01 04:16:18;;;;;;;6.72;2.60;;;;;;;4.01;80.24;101296.23;1885156;76;21139;-60
2022/01/01 04:18:47;;;;;;;6.85;3.10;;;;;;;4.03;80.08;101298.39;1885326;76;21524;-60
2022/01/01 04:21:16;;;;;;;5.42;2.72;;;;;;;4.04;79.96;101297.53;1885187;76;21042;-60
2022/01/01 04:23:46;;;;;;;9.65;3.33;;;;;;;4.04;79.83;101299.70;1885227;76;21473;-60
2022/01/01 04:26:15;;;;;;;8.83;2.98;;;;;;;4.03;79.80;101304.91;1885216;76;21066;-60
2022/01/01 04:28:43;;;;;;;6.90;3.20;;;;;;;4.02;79.82;101299.25;1885250;76;21143;-60
2022/01/01 04:31:15;;;;;;;11.57;3.92;;;;;;;4.00;79.84;101295.38;1885117;76;21601;-59
2022/01/01 04:33:44;;;;;;;12.00;3.50;;;;;;;4.00;79.88;101299.69;1884909;76;21070;-59
2022/01/01 04:36:13;;;;;;;9.08;3.60;;;;;;;4.00;79.79;101297.09;1885331;76;21034;-61
2022/01/01 04:38:44;;;;;;;13.35;4.35;;;;;;;3.96;79.74;101296.67;1885238;76;21167;-61
2022/01/01 04:41:15;;;;;;;12.47;4.30;;;;;;;3.91;79.76;101297.11;1885199;76;21097;-62
2022/01/01 04:43:45;;;;;;;12.45;4.30;;;;;;;3.89;79.75;101301.46;1885032;76;21042;-61
2022/01/01 04:46:14;;;;;;;11.12;4.33;;;;;;;3.85;79.76;101297.59;1885243;76;21026;-60
2022/01/01 04:48:44;;;;;;;12.40;4.47;;;;;;;3.81;79.79;101287.16;1885143;76;21445;-61
2022/01/01 04:51:13;;;;;;;11.53;4.60;;;;;;;3.72;80.06;101284.58;1885113;76;21124;-61
2022/01/01 04:53:47;;;;;;;8.23;3.33;;;;;;;3.67;80.22;101284.56;1885168;76;21184;-61
2022/01/01 04:56:18;;;;;;;7.95;3.27;;;;;;;3.61;80.33;101280.69;1883050;76;21065;-61
2022/01/01 04:58:42;;;;;;;6.92;3.02;;;;;;;3.57;80.47;101288.08;1884141;76;21061;-61
2022/01/01 05:01:11;;;;;;;6.97;2.85;;;;;;;3.58;80.63;101287.19;1885270;76;21069;-61
2022/01/01 05:03:40;;;;;;;5.42;2.80;;;;;;;3.64;80.77;101275.48;1885089;76;21042;-60
2022/01/01 05:06:09;;;;;;;5.42;2.62;;;;;;;3.74;80.78;101273.27;1868728;76;21052;-60
2022/01/01 05:08:37;;;;;;;8.28;2.72;;;;;;;3.86;80.66;101275.00;1853479;76;21491;-60
2022/01/01 05:11:06;;;;;;;7.95;3.02;;;;;;;3.92;80.48;101263.69;1853538;77;21115;-60
2022/01/01 05:13:35;;;;;;;8.65;2.80;;;;;;;3.93;80.19;101257.17;1853344;77;21487;-60
2022/01/01 05:16:04;;;;;;;7.83;3.72;;;;;;;3.89;80.00;101255.88;1861318;77;21087;-61
2022/01/01 05:18:36;;;;;;;8.03;3.25;;;;;;;3.82;79.97;101254.60;1865415;77;21059;-61
2022/01/01 05:21:03;;;;;;;11.48;4.62;;;;;;;3.79;79.86;101258.50;1865167;76;21063;-62
2022/01/01 05:23:32;;;;;;;8.18;4.05;;;;;;;3.78;79.83;101258.09;1865328;77;21201;-61
2022/01/01 05:26:01;;;;;;;8.55;3.77;;;;;;;3.75;79.95;101251.58;1865323;77;21126;-61
2022/01/01 05:28:30;;;;;;;8.13;3.72;;;;;;;3.92;80.03;101245.45;1799232;80;21546;-62
2022/01/01 05:30:59;;;;;;;7.65;3.52;;;;;;;4.10;79.91;101244.52;1826993;78;21063;-62
2022/01/01 05:33:28;;;;;;;21.95;15.78;;;;;;;4.25;79.74;101246.60;1826869;78;21133;-61
2022/01/01 05:35:56;;;;;;;11.65;7.40;;;;;;;4.30;79.59;101245.70;1799149;80;21156;-61
2022/01/01 05:38:25;;;;;;;15.10;6.47;;;;;;;4.33;79.51;101248.31;1826884;78;21079;-62
2022/01/01 05:40:55;;;;;;;10.00;4.70;;;;;;;4.36;79.54;101249.61;1826966;78;21490;-61
2022/01/01 05:43:23;;;;;;;4.95;2.92;;;;;;;4.42;79.66;101252.17;1799249;80;21547;-62
2022/01/01 05:45:52;;;;;;;8.13;3.17;;;;;;;4.54;79.57;101243.43;1826949;78;21110;-62
2022/01/01 05:48:21;;;;;;;5.20;2.62;;;;;;;4.66;79.45;101244.63;1826953;78;21055;-62
2022/01/01 05:50:50;;;;;;;6.10;2.52;;;;;;;4.87;79.33;101237.12;1799407;80;21558;-62
2022/01/01 05:53:19;;;;;;;3.80;2.02;;;;;;;4.96;79.20;101238.77;1826917;78;21083;-61
2022/01/01 05:55:49;;;;;;;5.67;2.70;;;;;;;5.01;79.15;101238.30;1826936;78;21080;-61
2022/01/01 05:58:19;;;;;;;6.22;2.72;;;;;;;5.08;79.10;101228.68;1799295;80;21151;-61
2022/01/01 06:00:48;;;;;;;4.55;2.42;;;;;;;5.15;79.08;101230.37;1826836;78;21064;-62
2022/01/01 06:03:18;;;;;;;3.47;1.80;;;;;;;5.48;78.91;101240.05;1827031;78;21048;-61
2022/01/01 06:05:48;;;;;;;5.90;2.77;;;;;;;6.52;77.40;101234.05;1799412;80;21488;-62
2022/01/01 06:08:16;;;;;;;7.53;3.35;;;;;;;6.85;76.05;101234.43;1827054;78;21040;-62
2022/01/01 06:10:45;;;;;;;5.75;2.55;;;;;;;6.66;75.32;101234.71;1827136;78;21024;-62
2022/01/01 06:13:13;;;;;;;6.47;2.30;;;;;;;6.60;75.46;101233.47;1799338;80;21126;-63
2022/01/01 06:15:43;;;;;;;6.08;2.72;;;;;;;6.60;75.76;101231.31;1828385;78;21248;-62
2022/01/01 06:18:12;;;;;;;5.58;2.58;;;;;;;6.75;75.70;101232.38;1821271;79;21121;-62
2022/01/01 06:20:42;;;;;;;4.92;2.42;;;;;;;7.17;74.60;101228.65;1859702;77;21139;-61
2022/01/01 06:23:10;;;;;;;4.72;2.33;;;;;;;7.02;74.68;101211.90;1821252;79;21461;-61
2022/01/01 06:25:39;;;;;;;4.05;2.40;;;;;;;7.03;74.74;101220.19;1859410;77;21109;-63
2022/01/01 06:28:09;;;;;;;4.80;2.65;;;;;;;7.61;73.72;101214.34;1828394;77;21203;-64
2022/01/01 06:30:37;;;;;;;4.62;2.10;;;;;;;8.28;72.56;101207.72;1849658;76;21013;-60
2022/01/01 06:33:18;;;;;;;3.22;1.87;;;;;;;8.99;71.37;101192.09;1849031;77;21121;-62
2022/01/01 06:35:48;;;;;;;2.77;1.85;;;;;;;9.79;69.17;101184.67;1850898;77;21050;-65
2022/01/01 06:38:18;;;;;;;2.92;1.50;;;;;;;10.36;67.64;101199.67;1815744;78;21112;-65
2022/01/01 06:40:46;;;;;;;2.50;1.55;;;;;;;10.93;66.32;101189.10;1864458;76;21132;-66
2022/01/01 06:43:16;;;;;;;2.65;1.25;;;;;;;11.53;65.65;101181.31;1843652;78;21062;-66
2022/01/01 06:45:45;;;;;;;1.87;1.10;;;;;;;12.00;64.66;101179.17;1843709;78;21050;-66
2022/01/01 06:48:13;;;;;;;1.77;1.45;;;;;;;12.30;62.21;101177.15;1853550;77;21097;-66
2022/01/01 06:50:42;;;;;;;2.37;1.55;;;;;;;12.37;61.52;101167.18;1853395;77;21058;-66
2022/01/01 06:53:14;;;;;;;1.62;1.27;;;;;;;11.97;61.23;101166.97;1880569;76;21114;-66
2022/01/01 06:55:42;;;;;;;1.75;1.27;;;;;;;11.50;60.79;101158.98;1885235;76;21068;-66
2022/01/01 06:58:11;;;;;;;3.55;1.55;;;;;;;10.96;62.10;101162.66;1885452;76;21041;-66
2022/01/01 07:00:40;;;;;;;4.42;1.70;;;;;;;10.34;63.66;101161.16;1885203;76;21082;-65
2022/01/01 07:03:09;;;;;;;2.85;1.70;;;;;;;9.97;64.93;101165.73;1885383;76;21050;-67
2022/01/01 07:05:38;;;;;;;2.70;1.57;;;;;;;9.92;65.62;101161.05;1885240;76;21653;-67
2022/01/01 07:08:06;;;;;;;3.20;2.12;;;;;;;9.77;65.97;101157.56;1885259;76;21563;-67
2022/01/01 07:10:35;;;;;;;4.03;1.55;;;;;;;9.52;66.76;101156.95;1885231;76;21074;-67
2022/01/01 07:13:04;;;;;;;2.80;1.70;;;;;;;9.45;67.26;101156.72;1885219;76;21203;-67
2022/01/01 07:15:32;;;;;;;2.12;1.40;;;;;;;9.49;67.45;101146.98;1885349;76;21058;-67
2022/01/01 07:18:01;;;;;;;2.72;1.57;;;;;;;9.58;67.06;101137.06;1885177;76;21528;-68
2022/01/01 07:20:30;;;;;;;3.70;1.70;;;;;;;9.62;66.92;101140.47;1885231;76;21066;-67
2022/01/01 07:22:59;;;;;;;2.75;1.70;;;;;;;9.80;66.80;101137.76;1885314;76;21120;-66
2022/01/01 07:25:28;;;;;;;3.17;1.72;;;;;;;10.02;66.29;101142.78;1885221;76;21042;-67
2022/01/01 07:27:57;;;;;;;2.10;1.60;;;;;;;10.13;65.96;101129.77;1880935;76;21039;-66
2022/01/01 07:30:26;;;;;;;1.82;1.37;;;;;;;10.16;65.97;101145.44;1851820;77;21048;-67
2022/01/01 07:32:55;;;;;;;3.35;1.77;;;;;;;10.22;65.97;101140.00;1851961;77;21142;-66
2022/01/01 07:35:24;;;;;;;2.95;1.45;;;;;;;10.26;65.99;101135.05;1851925;77;21189;-66
2022/01/01 07:37:53;;;;;;;2.70;1.80;;;;;;;10.26;65.76;101145.57;1851976;77;21459;-66
2022/01/01 07:40:22;;;;;;;2.47;1.65;;;;;;;10.57;65.86;101148.13;1852203;77;21149;-67
2022/01/01 07:42:50;;;;;;;3.45;1.70;;;;;;;11.02;65.01;101146.63;1851955;77;21447;-67
2022/01/01 07:45:19;;;;;;;3.02;2.10;;;;;;;11.54;63.45;101137.33;1851909;77;21024;-64
2022/01/01 07:47:48;;;;;;;1.92;1.42;;;;;;;11.40;62.12;101137.38;1851972;77;21580;-64
2022/01/01 07:50:17;;;;;;;2.70;1.45;;;;;;;11.19;62.41;101136.38;1852039;77;21068;-65
2022/01/01 07:52:46;;;;;;;3.92;1.27;;;;;;;10.97;63.23;101130.11;1851923;77;21064;-64
2022/01/01 07:55:14;;;;;;;2.62;1.40;;;;;;;10.70;63.60;101124.03;1851894;77;21112;-64
2022/01/01 07:57:43;;;;;;;2.60;1.52;;;;;;;10.48;64.15;101126.51;1851962;77;21087;-64
2022/01/01 08:00:12;;;;;;;1.67;0.78;;;;;;;10.39;64.37;101139.50;1851995;77;21059;-64
2022/01/01 08:02:43;;;;;;;2.25;0.95;;;;;;;10.26;64.21;101125.83;1851940;77;21047;-62
2022/01/01 08:05:13;;;;;;;2.45;0.80;;;;;;;10.33;64.14;101127.40;1851882;77;21558;-64
2022/01/01 08:07:41;;;;;;;3.10;1.57;;;;;;;10.58;63.99;101135.81;1851954;77;21514;-64
2022/01/01 08:10:12;;;;;;;9.93;1.85;;;;;;;10.60;63.90;101122.13;1851836;77;21123;-61
2022/01/01 08:12:41;;;;;;;2.58;1.27;;;;;;;10.48;63.89;101117.29;1852042;77;21060;-61
2022/01/01 08:15:10;;;;;;;5.90;1.85;;;;;;;10.36;64.55;101114.58;1851946;77;21071;-61
2022/01/01 08:17:39;;;;;;;1.80;1.10;;;;;;;10.17;64.32;101111.65;1853558;77;21623;-61
2022/01/01 08:20:08;;;;;;;2.05;0.78;;;;;;;10.03;64.79;101105.05;1858027;77;21063;-61
2022/01/01 08:22:37;;;;;;;3.00;1.30;;;;;;;9.95;64.66;101113.62;1857866;77;21040;-61
2022/01/01 08:25:07;;;;;;;2.42;1.12;;;;;;;9.88;65.03;101110.77;1857876;77;21035;-61
2022/01/01 08:27:35;;;;;;;4.78;1.32;;;;;;;9.79;65.33;101116.30;1857962;77;21028;-61
2022/01/01 08:30:05;;;;;;;2.55;1.15;;;;;;;9.77;65.48;101105.82;1859377;77;21045;-61
2022/01/01 08:32:34;;;;;;;2.92;1.37;;;;;;;9.81;65.48;101103.96;1859406;77;21045;-62
2022/01/01 08:35:02;;;;;;;2.60;1.50;;;;;;;9.80;65.06;101096.53;1859235;77;21053;-61
2022/01/01 08:37:31;;;;;;;2.50;1.27;;;;;;;9.83;64.91;101080.67;1859480;77;21074;-60
2022/01/01 08:40:00;;;;;;;2.98;1.50;;;;;;;9.87;65.10;101095.91;1859364;77;21054;-61
2022/01/01 08:42:28;;;;;;;2.10;1.67;;;;;;;9.95;64.98;101082.05;1859400;77;21147;-61
2022/01/01 08:44:57;;;;;;;3.45;1.90;;;;;;;9.93;64.55;101077.30;1859343;77;21512;-60
2022/01/01 08:47:26;;;;;;;1.80;1.17;;;;;;;9.83;64.49;101096.88;1859328;77;21484;-60
2022/01/01 08:49:56;;;;;;;1.57;0.95;;;;;;;9.71;64.88;101063.94;1859517;77;21579;-61
2022/01/01 08:52:25;;;;;;;2.85;1.42;;;;;;;9.55;65.15;101071.41;1859488;77;21408;-61
2022/01/01 08:54:59;;;;;;;5.05;1.95;;;;;;;9.44;65.49;101055.09;1859394;77;21006;-61
2022/01/01 08:57:34;;;;;;;2.40;1.70;;;;;;;9.38;65.98;101057.45;1859375;77;21022;-61
2022/01/01 08:59:59;;;;;;;5.30;1.92;;;;;;;9.34;66.23;101053.20;1858494;77;21022;-63
2022/01/01 09:02:28;;;;;;;3.75;1.60;;;;;;;9.28;66.40;101066.53;1859324;77;21538;-62
2022/01/01 09:04:57;;;;;;;3.08;2.02;;;;;;;9.23;66.81;101061.39;1859411;77;21139;-62
2022/01/01 09:07:28;;;;;;;1.72;1.27;;;;;;;9.22;66.96;101051.80;1859370;77;21084;-66
2022/01/01 09:09:59;;;;;;;4.75;1.85;;;;;;;9.21;67.09;101055.31;1859490;77;21159;-59
2022/01/01 09:12:29;;;;;;;3.27;1.57;;;;;;;9.22;67.21;101058.37;1858025;77;21058;-61
2022/01/01 09:14:58;;;;;;;2.33;1.20;;;;;;;9.20;67.29;101040.47;1859436;77;21116;-61
2022/01/01 09:17:27;;;;;;;2.70;1.30;;;;;;;9.23;67.33;101050.87;1859375;77;21139;-59
2022/01/01 09:19:56;;;;;;;5.87;1.52;;;;;;;9.37;67.26;101035.16;1853774;77;21106;-59
2022/01/01 09:22:25;;;;;;;4.78;2.30;;;;;;;9.49;67.01;101041.38;1853416;77;21127;-59
2022/01/01 09:24:53;;;;;;;4.22;1.90;;;;;;;9.61;66.87;101025.24;1853352;77;21058;-60
2022/01/01 09:27:23;;;;;;;3.10;1.77;;;;;;;9.55;66.40;101033.30;1853308;77;21954;-61
2022/01/01 09:29:51;;;;;;;2.87;1.57;;;;;;;9.43;66.66;101024.48;1853343;77;21114;-62
2022/01/01 09:32:20;;;;;;;2.67;1.42;;;;;;;9.31;66.81;101019.58;1853378;77;21041;-61
2022/01/01 09:34:49;;;;;;;7.10;3.58;;;;;;;9.17;66.84;101023.47;1853610;77;21464;-60
2022/01/01 09:37:18;;;;;;;4.97;2.22;;;;;;;9.06;67.36;101017.67;1853490;77;21048;-60
2022/01/01 09:39:47;;;;;;;3.85;2.40;;;;;;;8.98;67.67;101014.38;1853358;77;21490;-61
2022/01/01 09:42:18;;;;;;;8.05;3.95;;;;;;;8.87;68.07;101018.61;1853574;77;21111;-62
2022/01/01 09:44:48;;;;;;;5.40;2.05;;;;;;;8.81;68.54;101017.47;1853457;77;21016;-61
2022/01/01 09:47:17;;;;;;;7.00;2.60;;;;;;;8.76;68.98;101018.93;1853609;77;21435;-61
2022/01/01 09:49:47;;;;;;;4.75;2.50;;;;;;;8.72;69.69;101013.33;1853449;77;21118;-61
2022/01/01 09:52:17;;;;;;;2.90;2.02;;;;;;;8.72;69.80;101013.78;1853364;77;21541;-61
2022/01/01 09:54:45;;;;;;;4.55;1.98;;;;;;;8.72;70.04;101012.47;1853613;77;21040;-60
2022/01/01 09:57:15;;;;;;;3.27;2.05;;;;;;;8.75;70.07;101004.06;1853473;77;21130;-60
2022/01/01 09:59:43;;;;;;;4.17;2.47;;;;;;;8.78;70.15;101012.30;1853600;77;21044;-61
2022/01/01 10:02:12;;;;;;;2.90;1.77;;;;;;;8.78;70.24;100994.80;1853596;77;21037;-64
2022/01/01 10:04:48;;;;;;;4.33;1.87;;;;;;;8.78;70.17;100987.36;1853499;77;21044;-65
2022/01/01 10:07:18;;;;;;;4.37;1.90;;;;;;;8.81;70.29;100985.50;1853451;77;21131;-63
2022/01/01 10:09:47;;;;;;;2.30;1.47;;;;;;;8.85;70.29;100975.78;1853431;77;21564;-63
2022/01/01 10:12:16;;;;;;;4.70;2.12;;;;;;;8.87;70.22;100978.80;1853445;77;21095;-61
2022/01/01 10:14:47;;;;;;;3.52;2.05;;;;;;;8.94;70.17;100967.64;1860531;76;21082;-60
2022/01/01 10:17:24;;;;;;;3.37;1.75;;;;;;;9.06;69.80;100967.76;1848319;76;21121;-63
2022/01/01 10:19:54;;;;;;;5.45;2.50;;;;;;;9.15;69.39;100964.86;1852313;77;21094;-60
2022/01/01 10:22:24;;;;;;;3.12;1.72;;;;;;;9.25;69.30;100958.41;1858912;77;21602;-61
2022/01/01 10:28:03;;;;;;;2.47;1.50;;;;;;;9.52;68.57;100947.12;1836666;75;21102;-61
2022/01/01 10:30:38;;;;;;;3.60;1.77;;;;;;;9.64;68.14;100948.88;1897601;75;21501;-61
2022/01/01 10:33:16;;;;;;;4.50;1.75;;;;;;;9.66;68.12;100927.38;1897583;75;21470;-61
2022/01/01 10:35:52;;;;;;;4.28;1.77;;;;;;;9.66;68.08;100926.48;1897814;75;21020;-61
2022/01/01 10:38:28;;;;;;;2.40;1.30;;;;;;;9.70;68.01;100908.41;1897837;75;21476;-61
2022/01/01 10:41:13;;;;;;;2.12;1.27;;;;;;;9.73;67.88;100929.80;1897731;75;21024;-61
2022/01/01 10:43:44;;;;;;;4.20;1.50;;;;;;;9.71;67.54;100926.36;1897717;75;21063;-60
2022/01/01 10:46:19;;;;;;;2.15;1.40;;;;;;;9.64;67.68;100924.37;1897555;75;21505;-61
2022/01/01 10:51:19;;;;;;;3.12;1.40;;;;;;;9.54;67.43;100925.13;1897910;75;21051;-61
2022/01/01 10:53:48;;;;;;;2.90;2.08;;;;;;;9.46;67.28;100909.60;1897598;75;21138;-60
2022/01/01 10:56:22;;;;;;;1.50;1.00;;;;;;;9.44;67.15;100907.91;1897614;75;21172;-61
2022/01/01 10:59:01;;;;;;;3.52;1.80;;;;;;;9.40;67.39;100903.67;1882446;75;21029;-63
2022/01/01 11:01:32;;;;;;;4.95;1.70;;;;;;;9.32;67.64;100905.69;1858923;77;21120;-63
2022/01/01 11:04:01;;;;;;;5.50;1.55;;;;;;;9.23;68.06;100908.98;1858803;77;21043;-63
2022/01/01 11:06:32;;;;;;;2.50;1.62;;;;;;;9.13;68.78;100903.62;1858767;77;21140;-63
2022/01/01 11:09:02;;;;;;;4.97;2.40;;;;;;;9.07;69.15;100914.30;1858866;77;21042;-63
2022/01/01 11:11:31;;;;;;;2.67;1.32;;;;;;;9.03;69.64;100912.68;1858619;77;21574;-64
2022/01/01 11:14:02;;;;;;;4.70;1.77;;;;;;;8.97;70.06;100908.47;1858911;77;21070;-62
2022/01/01 11:16:31;;;;;;;3.52;2.27;;;;;;;8.88;70.59;100909.59;1858744;77;21097;-61
2022/01/01 11:19:01;;;;;;;5.28;2.37;;;;;;;8.83;71.01;100895.73;1860309;76;21127;-61
2022/01/01 11:21:29;;;;;;;4.08;2.37;;;;;;;8.78;71.36;100904.22;1844892;77;21583;-61
2022/01/01 11:24:00;;;;;;;4.62;2.40;;;;;;;8.75;71.75;100893.80;1843594;78;21047;-61
2022/01/01 11:26:29;;;;;;;6.85;1.57;;;;;;;8.74;71.88;100895.14;1843594;78;21109;-60
2022/01/01 11:28:58;;;;;;;3.87;2.27;;;;;;;8.71;72.03;100881.67;1843584;78;21055;-61
2022/01/01 11:31:27;;;;;;;5.50;2.22;;;;;;;8.70;72.00;100865.50;1843615;78;21117;-62
2022/01/01 11:36:46;;;;;;;4.92;2.20;;;;;;;8.79;72.02;100878.36;1796493;80;21070;-59
2022/01/01 11:39:15;;;;;;;5.08;2.33;;;;;;;8.82;71.93;100870.39;1827251;78;21490;-58
2022/01/01 11:41:45;;;;;;;4.22;1.80;;;;;;;8.89;71.85;100868.00;1796476;80;21058;-58
2022/01/01 11:44:31;;;;;;;5.65;2.55;;;;;;;8.95;71.58;100866.10;1827236;78;21049;-60
2022/01/01 11:47:03;;;;;;;2.52;1.60;;;;;;;9.00;71.50;100862.86;1796473;80;21180;-61
2022/01/01 11:49:34;;;;;;;4.45;2.62;;;;;;;9.05;71.35;100858.33;1796460;80;21089;-60
2022/01/01 11:52:03;;;;;;;4.35;2.37;;;;;;;9.06;71.24;100869.26;1827252;78;21066;-60
2022/01/01 11:54:40;;;;;;;4.45;2.70;;;;;;;9.04;70.97;100868.45;1796463;78;21066;-60
2022/01/01 11:57:20;;;;;;;3.77;1.87;;;;;;;8.95;70.30;100861.70;1827415;78;21132;-60